• Join FlightAware (Why Join?)
  • Login
  • US Flag 
03:54PM EST


 

Airport Tracker/Info


-or-


 

Live Flight TrackerFlight Track Log ✈ DAL6035 ✈ 05-Nov-2013 ✈ KLGA - KMHT

Flight Track Log - Related Links

Times and Time Zones

All times are in EST time to prevent confusion due to time zone crossing. See the DAL6035 flight status page for this flight to view local times or setup timezone preferences in your user account.

Time Position Orientation Groundspeed Altitude Reporting Facility
EST Latitude Longitude Course Direction KTS MPH feet Rate Location/Type
02:51PM 40.7500 -73.8500 346° North 170 196 1,900  Level New York TRACON
02:52PM 40.7500 -73.7833 90° East 222 255 4,900 2,700 Climbing New York TRACON
02:53PM 40.8167 -73.7500 21° North 250 288 7,400 2,520 Climbing New York TRACON
02:54PM 41.0994 -73.5222 37° Northeast  Level Estimated
02:54PM 40.8667 -73.7167 27° Northeast 266 306 9,800  Level New York TRACON
02:55PM 41.1798 -73.4341 45° Northeast  Level Estimated
02:55PM 40.9333 -73.6500 37° Northeast 305 351 10,000  Level New York TRACON
02:56PM 41.2601 -73.3457 37° Northeast  Level Estimated
02:57PM 41.3364 -73.2616 346° North  Level Estimated
03:02PM 41.3590 -73.3690 37° Northeast 100 115 21,000  Level FlightAware
03:02PM 41.3900 -73.3700 359° North 341 392 21,000  Level FlightAware
03:03PM 41.4230 -73.3710 359° North 341 392 21,000  Level FlightAware
03:03PM 41.4880 -73.3720 359° North 341 392 21,000  Level FlightAware
03:04PM 41.5330 -73.3740 358° North 341 392 21,000  Level FlightAware
03:05PM 41.6150 -73.3750 359° North 341 392 21,000  Level FlightAware
03:06PM 41.6940 -73.3770 359° North 341 392 21,000  Level FlightAware
03:07PM 41.8408 -73.3622 359° North 319 367 21,000  Level Boston Center
03:08PM 41.9303 -73.3614 360° North 321 369 21,000  Level Boston Center
03:09PM 42.0197 -73.3592 North 322 371 21,000 -180 Level Boston Center
03:10PM 42.1228 -73.3550 North 334 384 20,700 -660 Descending Boston Center
03:11PM 42.2003 -73.2581 43° Northeast 349 402 19,700 -900 Descending Boston Center
03:12PM 42.2653 -73.1536 50° Northeast 352 405 19,000 -360 Descending Boston Center
03:13PM 42.3269 -73.0544 50° Northeast 345 397 19,000  Level Boston Center
03:14PM 42.3919 -72.9494 50° Northeast 340 391 19,000  Level Boston Center
03:15PM 42.4522 -72.8492 51° Northeast 344 396 19,000  Level Boston Center
03:16PM 42.5133 -72.7492 50° Northeast 344 396 19,000  Level Boston Center
03:17PM 42.5731 -72.6514 50° Northeast 338 389 19,000 -300 Level Boston Center
03:18PM 42.6347 -72.5561 49° Northeast 342 394 18,400 -960 Descending Boston Center
03:19PM 42.6950 -72.4589 50° Northeast 342 394 17,100 -1,620 Descending Boston Center
03:20PM 42.7531 -72.3633 50° Northeast 333 383 15,200 -2,160 Descending Boston Center
03:21PM 42.7956 -72.2464 64° Northeast 339 390 12,800 -2,340 Descending Boston Center
03:22PM 42.8067 -72.1261 83° East 324 373 10,500 -1,800 Descending Boston Center
03:23PM 42.8161 -72.0117 84° East 309 356 9,100 -1,740 Descending Boston Center
03:24PM 42.8442 -71.9114 69° East 276 318 7,000 -2,040 Descending Boston Center
03:25PM 42.8850 -71.8222 58° Northeast 277 319 5,000 -1,440 Descending Boston Center
03:26PM 42.9258 -71.7431 55° Northeast 259 298 4,100 -720 Descending Boston Center
03:27PM 42.9619 -71.6625 58° Northeast 234 269 3,600 -720 Descending Boston Center
03:28PM 42.9886 -71.5894 63° Northeast 220 253 2,700 -540 Descending Boston Center
03:29PM 43.0153 -71.5175 63° Northeast 213 245 2,500 -120 Descending Boston Center
03:30PM 43.0478 -71.4544 55° Northeast 206 237 2,500  Level Boston Center
03:32PM 43.0575 -71.3847 79° East 198 228 2,500  Level Boston Center
03:32PM 43.0333 -71.3500 134° Southeast 186 214 2,500 -540 Level KA90
03:33PM 43.0000 -71.3667 200° South 156 180 1,700 -840 Descending KA90
03:34PM 42.9667 -71.4000 216° Southwest 127 146 1,000 -600 Descending KA90
03:36PM 42.9294 -71.4464 222° Southwest 132 152 300 -540 Descending Boston Center